sensor_id;sensor_type;location;lat;lon;timestamp;P1;durP1;ratioP1;P2;durP2;ratioP2
9138;SDS011;4604;48.616;9.548;2024-01-25T00:01:21;7.97;;;2.67;;
9138;SDS011;4604;48.616;9.548;2024-01-25T00:03:48;11.93;;;2.53;;
9138;SDS011;4604;48.616;9.548;2024-01-25T00:06:15;9.27;;;2.70;;
9138;SDS011;4604;48.616;9.548;2024-01-25T00:08:42;8.90;;;2.60;;
9138;SDS011;4604;48.616;9.548;2024-01-25T00:11:08;8.50;;;2.20;;
9138;SDS011;4604;48.616;9.548;2024-01-25T00:13:35;10.37;;;2.80;;
9138;SDS011;4604;48.616;9.548;2024-01-25T00:16:04;9.00;;;2.77;;
9138;SDS011;4604;48.616;9.548;2024-01-25T00:18:31;10.60;;;2.30;;
9138;SDS011;4604;48.616;9.548;2024-01-25T00:20:58;10.10;;;2.43;;
9138;SDS011;4604;48.616;9.548;2024-01-25T00:23:25;7.00;;;2.20;;
9138;SDS011;4604;48.616;9.548;2024-01-25T00:25:52;9.50;;;2.17;;
9138;SDS011;4604;48.616;9.548;2024-01-25T00:28:23;13.10;;;2.40;;
9138;SDS011;4604;48.616;9.548;2024-01-25T00:30:50;14.63;;;2.67;;
9138;SDS011;4604;48.616;9.548;2024-01-25T00:33:18;8.83;;;2.33;;
9138;SDS011;4604;48.616;9.548;2024-01-25T00:35:45;11.57;;;2.70;;
9138;SDS011;4604;48.616;9.548;2024-01-25T00:38:13;11.27;;;2.50;;
9138;SDS011;4604;48.616;9.548;2024-01-25T00:40:41;8.40;;;2.60;;
9138;SDS011;4604;48.616;9.548;2024-01-25T00:43:08;10.20;;;2.27;;
9138;SDS011;4604;48.616;9.548;2024-01-25T00:45:36;11.27;;;2.40;;
9138;SDS011;4604;48.616;9.548;2024-01-25T00:48:04;8.73;;;2.27;;
9138;SDS011;4604;48.616;9.548;2024-01-25T00:50:33;8.53;;;2.50;;
9138;SDS011;4604;48.616;9.548;2024-01-25T00:53:00;8.43;;;2.23;;
9138;SDS011;4604;48.616;9.548;2024-01-25T00:55:28;7.57;;;2.70;;
9138;SDS011;4604;48.616;9.548;2024-01-25T00:57:57;13.70;;;2.53;;
9138;SDS011;4604;48.616;9.548;2024-01-25T01:00:25;9.13;;;2.80;;
9138;SDS011;4604;48.616;9.548;2024-01-25T01:02:53;8.27;;;2.30;;
9138;SDS011;4604;48.616;9.548;2024-01-25T01:05:20;8.90;;;2.50;;
9138;SDS011;4604;48.616;9.548;2024-01-25T01:07:55;14.20;;;3.60;;
9138;SDS011;4604;48.616;9.548;2024-01-25T01:10:22;12.70;;;2.90;;
9138;SDS011;4604;48.616;9.548;2024-01-25T01:12:51;11.13;;;2.63;;
9138;SDS011;4604;48.616;9.548;2024-01-25T01:15:20;9.27;;;2.70;;
9138;SDS011;4604;48.616;9.548;2024-01-25T01:17:49;7.63;;;2.07;;
9138;SDS011;4604;48.616;9.548;2024-01-25T01:20:15;5.33;;;2.20;;
9138;SDS011;4604;48.616;9.548;2024-01-25T01:22:42;6.40;;;2.10;;
9138;SDS011;4604;48.616;9.548;2024-01-25T01:25:10;11.07;;;2.20;;
9138;SDS011;4604;48.616;9.548;2024-01-25T01:27:37;7.60;;;2.40;;
9138;SDS011;4604;48.616;9.548;2024-01-25T01:30:04;8.43;;;2.53;;
9138;SDS011;4604;48.616;9.548;2024-01-25T01:32:33;10.03;;;2.27;;
9138;SDS011;4604;48.616;9.548;2024-01-25T01:34:59;7.03;;;2.00;;
9138;SDS011;4604;48.616;9.548;2024-01-25T01:37:26;11.13;;;2.37;;
9138;SDS011;4604;48.616;9.548;2024-01-25T01:39:53;9.70;;;2.73;;
9138;SDS011;4604;48.616;9.548;2024-01-25T01:42:22;4.37;;;2.07;;
9138;SDS011;4604;48.616;9.548;2024-01-25T01:44:48;10.30;;;2.13;;
9138;SDS011;4604;48.616;9.548;2024-01-25T01:47:16;9.93;;;2.10;;
9138;SDS011;4604;48.616;9.548;2024-01-25T01:49:43;12.73;;;2.40;;
9138;SDS011;4604;48.616;9.548;2024-01-25T01:52:10;10.77;;;2.63;;
9138;SDS011;4604;48.616;9.548;2024-01-25T01:54:38;5.23;;;2.30;;
9138;SDS011;4604;48.616;9.548;2024-01-25T01:57:05;10.40;;;2.20;;
9138;SDS011;4604;48.616;9.548;2024-01-25T01:59:35;12.23;;;2.87;;
9138;SDS011;4604;48.616;9.548;2024-01-25T02:02:02;7.83;;;2.40;;
9138;SDS011;4604;48.616;9.548;2024-01-25T02:04:29;9.93;;;2.53;;
9138;SDS011;4604;48.616;9.548;2024-01-25T02:07:02;12.83;;;2.70;;
9138;SDS011;4604;48.616;9.548;2024-01-25T02:09:39;8.10;;;2.30;;
9138;SDS011;4604;48.616;9.548;2024-01-25T02:12:06;11.47;;;2.80;;
9138;SDS011;4604;48.616;9.548;2024-01-25T02:14:33;8.80;;;2.33;;
9138;SDS011;4604;48.616;9.548;2024-01-25T02:17:01;5.43;;;2.30;;
9138;SDS011;4604;48.616;9.548;2024-01-25T02:19:27;13.13;;;2.50;;
9138;SDS011;4604;48.616;9.548;2024-01-25T02:21:54;8.13;;;2.10;;
9138;SDS011;4604;48.616;9.548;2024-01-25T02:24:26;7.97;;;2.50;;
9138;SDS011;4604;48.616;9.548;2024-01-25T02:26:53;4.43;;;2.00;;
9138;SDS011;4604;48.616;9.548;2024-01-25T02:29:19;8.10;;;2.67;;
9138;SDS011;4604;48.616;9.548;2024-01-25T02:31:46;8.30;;;2.47;;
9138;SDS011;4604;48.616;9.548;2024-01-25T02:34:13;12.10;;;2.07;;
9138;SDS011;4604;48.616;9.548;2024-01-25T02:36:39;9.80;;;2.90;;
9138;SDS011;4604;48.616;9.548;2024-01-25T02:39:06;7.43;;;2.00;;
9138;SDS011;4604;48.616;9.548;2024-01-25T02:41:34;12.03;;;2.10;;
9138;SDS011;4604;48.616;9.548;2024-01-25T02:44:01;6.87;;;2.03;;
9138;SDS011;4604;48.616;9.548;2024-01-25T02:46:28;12.10;;;2.60;;
9138;SDS011;4604;48.616;9.548;2024-01-25T02:48:54;11.73;;;2.20;;
9138;SDS011;4604;48.616;9.548;2024-01-25T02:51:21;6.97;;;2.23;;
9138;SDS011;4604;48.616;9.548;2024-01-25T02:53:48;10.20;;;2.67;;
9138;SDS011;4604;48.616;9.548;2024-01-25T02:59:05;10.17;;;2.20;;
9138;SDS011;4604;48.616;9.548;2024-01-25T03:01:37;6.03;;;2.17;;
9138;SDS011;4604;48.616;9.548;2024-01-25T03:04:07;11.07;;;2.20;;
9138;SDS011;4604;48.616;9.548;2024-01-25T03:06:37;10.47;;;2.37;;
9138;SDS011;4604;48.616;9.548;2024-01-25T03:09:06;7.30;;;2.63;;
9138;SDS011;4604;48.616;9.548;2024-01-25T03:11:33;11.17;;;2.90;;
9138;SDS011;4604;48.616;9.548;2024-01-25T03:14:00;8.57;;;2.53;;
9138;SDS011;4604;48.616;9.548;2024-01-25T03:16:28;13.23;;;2.30;;
9138;SDS011;4604;48.616;9.548;2024-01-25T03:18:54;6.90;;;2.23;;
9138;SDS011;4604;48.616;9.548;2024-01-25T03:21:21;10.03;;;2.40;;
9138;SDS011;4604;48.616;9.548;2024-01-25T03:23:48;12.53;;;3.07;;
9138;SDS011;4604;48.616;9.548;2024-01-25T03:26:15;9.53;;;2.80;;
9138;SDS011;4604;48.616;9.548;2024-01-25T03:28:42;5.60;;;2.00;;
9138;SDS011;4604;48.616;9.548;2024-01-25T03:31:08;9.43;;;2.90;;
9138;SDS011;4604;48.616;9.548;2024-01-25T03:33:37;14.37;;;2.83;;
9138;SDS011;4604;48.616;9.548;2024-01-25T03:36:04;13.90;;;2.70;;
9138;SDS011;4604;48.616;9.548;2024-01-25T03:38:31;15.77;;;2.47;;
9138;SDS011;4604;48.616;9.548;2024-01-25T03:40:58;8.53;;;2.80;;
9138;SDS011;4604;48.616;9.548;2024-01-25T03:43:25;11.40;;;2.63;;
9138;SDS011;4604;48.616;9.548;2024-01-25T03:45:52;8.20;;;2.20;;
9138;SDS011;4604;48.616;9.548;2024-01-25T03:48:19;5.17;;;2.00;;
9138;SDS011;4604;48.616;9.548;2024-01-25T03:50:48;8.17;;;2.47;;
9138;SDS011;4604;48.616;9.548;2024-01-25T03:53:59;20.23;;;2.50;;
9138;SDS011;4604;48.616;9.548;2024-01-25T04:00:20;11.77;;;2.73;;
9138;SDS011;4604;48.616;9.548;2024-01-25T04:03:14;11.43;;;2.57;;
9138;SDS011;4604;48.616;9.548;2024-01-25T04:05:45;11.33;;;2.80;;
9138;SDS011;4604;48.616;9.548;2024-01-25T04:08:21;14.33;;;2.60;;
9138;SDS011;4604;48.616;9.548;2024-01-25T04:10:53;7.70;;;2.67;;
9138;SDS011;4604;48.616;9.548;2024-01-25T04:13:28;11.93;;;3.00;;
9138;SDS011;4604;48.616;9.548;2024-01-25T04:16:06;12.07;;;2.50;;
9138;SDS011;4604;48.616;9.548;2024-01-25T04:18:54;10.83;;;2.73;;
9138;SDS011;4604;48.616;9.548;2024-01-25T04:21:23;9.53;;;2.77;;
9138;SDS011;4604;48.616;9.548;2024-01-25T04:23:52;10.10;;;2.40;;
9138;SDS011;4604;48.616;9.548;2024-01-25T04:26:19;13.87;;;2.97;;
9138;SDS011;4604;48.616;9.548;2024-01-25T04:28:45;10.03;;;2.30;;
9138;SDS011;4604;48.616;9.548;2024-01-25T04:31:23;11.53;;;2.77;;
9138;SDS011;4604;48.616;9.548;2024-01-25T04:33:51;8.83;;;2.47;;
9138;SDS011;4604;48.616;9.548;2024-01-25T04:36:20;9.23;;;2.27;;
9138;SDS011;4604;48.616;9.548;2024-01-25T04:38:47;11.03;;;3.10;;
9138;SDS011;4604;48.616;9.548;2024-01-25T04:41:15;10.70;;;3.43;;
9138;SDS011;4604;48.616;9.548;2024-01-25T04:43:41;7.23;;;2.40;;
9138;SDS011;4604;48.616;9.548;2024-01-25T04:46:08;8.53;;;2.30;;
9138;SDS011;4604;48.616;9.548;2024-01-25T04:48:35;11.40;;;2.43;;
9138;SDS011;4604;48.616;9.548;2024-01-25T04:51:02;7.93;;;2.77;;
9138;SDS011;4604;48.616;9.548;2024-01-25T04:53:29;6.13;;;2.20;;
9138;SDS011;4604;48.616;9.548;2024-01-25T04:55:55;8.70;;;2.50;;
9138;SDS011;4604;48.616;9.548;2024-01-25T04:58:24;9.43;;;2.37;;
9138;SDS011;4604;48.616;9.548;2024-01-25T05:00:52;8.67;;;2.37;;
9138;SDS011;4604;48.616;9.548;2024-01-25T05:03:20;11.37;;;2.93;;
9138;SDS011;4604;48.616;9.548;2024-01-25T05:05:47;7.63;;;2.80;;
9138;SDS011;4604;48.616;9.548;2024-01-25T05:08:13;13.67;;;3.17;;
9138;SDS011;4604;48.616;9.548;2024-01-25T05:10:40;10.63;;;2.50;;
9138;SDS011;4604;48.616;9.548;2024-01-25T05:13:08;7.90;;;2.10;;
9138;SDS011;4604;48.616;9.548;2024-01-25T05:15:36;7.00;;;2.50;;
9138;SDS011;4604;48.616;9.548;2024-01-25T05:18:03;6.20;;;2.20;;
9138;SDS011;4604;48.616;9.548;2024-01-25T05:20:31;10.23;;;2.40;;
9138;SDS011;4604;48.616;9.548;2024-01-25T05:22:59;8.37;;;2.80;;
9138;SDS011;4604;48.616;9.548;2024-01-25T05:25:26;9.33;;;2.33;;
9138;SDS011;4604;48.616;9.548;2024-01-25T05:27:53;9.33;;;3.00;;
9138;SDS011;4604;48.616;9.548;2024-01-25T05:30:19;8.40;;;3.57;;
9138;SDS011;4604;48.616;9.548;2024-01-25T05:32:47;9.70;;;4.00;;
9138;SDS011;4604;48.616;9.548;2024-01-25T05:35:14;10.87;;;3.70;;
9138;SDS011;4604;48.616;9.548;2024-01-25T05:37:42;11.63;;;3.07;;
9138;SDS011;4604;48.616;9.548;2024-01-25T05:40:09;12.50;;;3.20;;
9138;SDS011;4604;48.616;9.548;2024-01-25T05:42:36;10.13;;;3.03;;
9138;SDS011;4604;48.616;9.548;2024-01-25T05:45:03;6.87;;;2.97;;
9138;SDS011;4604;48.616;9.548;2024-01-25T05:47:30;10.57;;;2.77;;
9138;SDS011;4604;48.616;9.548;2024-01-25T05:49:58;9.93;;;2.93;;
9138;SDS011;4604;48.616;9.548;2024-01-25T05:52:25;7.40;;;2.47;;
9138;SDS011;4604;48.616;9.548;2024-01-25T05:54:52;10.90;;;3.03;;
9138;SDS011;4604;48.616;9.548;2024-01-25T05:57:19;12.90;;;3.97;;
9138;SDS011;4604;48.616;9.548;2024-01-25T05:59:45;6.73;;;2.60;;
9138;SDS011;4604;48.616;9.548;2024-01-25T06:02:12;5.73;;;2.43;;
9138;SDS011;4604;48.616;9.548;2024-01-25T06:04:39;9.70;;;2.90;;
9138;SDS011;4604;48.616;9.548;2024-01-25T06:07:07;14.77;;;3.17;;
9138;SDS011;4604;48.616;9.548;2024-01-25T06:09:34;15.70;;;3.67;;
9138;SDS011;4604;48.616;9.548;2024-01-25T06:12:00;9.80;;;3.10;;
9138;SDS011;4604;48.616;9.548;2024-01-25T06:14:28;10.77;;;2.73;;
9138;SDS011;4604;48.616;9.548;2024-01-25T06:16:55;15.63;;;2.43;;
9138;SDS011;4604;48.616;9.548;2024-01-25T06:19:22;11.17;;;2.77;;
9138;SDS011;4604;48.616;9.548;2024-01-25T06:21:49;7.27;;;2.93;;
9138;SDS011;4604;48.616;9.548;2024-01-25T06:24:17;13.77;;;3.10;;
9138;SDS011;4604;48.616;9.548;2024-01-25T06:26:44;8.30;;;2.30;;
9138;SDS011;4604;48.616;9.548;2024-01-25T06:29:11;7.83;;;2.27;;
9138;SDS011;4604;48.616;9.548;2024-01-25T06:31:40;6.13;;;2.47;;
9138;SDS011;4604;48.616;9.548;2024-01-25T06:34:08;13.97;;;2.67;;
9138;SDS011;4604;48.616;9.548;2024-01-25T06:36:35;10.00;;;2.50;;
9138;SDS011;4604;48.616;9.548;2024-01-25T06:39:01;9.77;;;2.33;;
9138;SDS011;4604;48.616;9.548;2024-01-25T06:41:30;10.60;;;2.50;;
9138;SDS011;4604;48.616;9.548;2024-01-25T06:43:57;8.97;;;2.60;;
9138;SDS011;4604;48.616;9.548;2024-01-25T06:46:24;8.50;;;2.50;;
9138;SDS011;4604;48.616;9.548;2024-01-25T06:48:50;9.33;;;2.80;;
9138;SDS011;4604;48.616;9.548;2024-01-25T06:51:17;15.03;;;3.23;;
9138;SDS011;4604;48.616;9.548;2024-01-25T06:53:44;6.87;;;2.60;;
9138;SDS011;4604;48.616;9.548;2024-01-25T06:56:10;7.80;;;2.60;;
9138;SDS011;4604;48.616;9.548;2024-01-25T06:58:38;6.83;;;2.40;;
9138;SDS011;4604;48.616;9.548;2024-01-25T07:01:05;7.13;;;2.70;;
9138;SDS011;4604;48.616;9.548;2024-01-25T07:03:32;9.93;;;2.87;;
9138;SDS011;4604;48.616;9.548;2024-01-25T07:05:58;6.60;;;2.53;;
9138;SDS011;4604;48.616;9.548;2024-01-25T07:08:25;9.27;;;2.80;;
9138;SDS011;4604;48.616;9.548;2024-01-25T07:10:52;7.97;;;2.93;;
9138;SDS011;4604;48.616;9.548;2024-01-25T07:13:19;7.10;;;2.60;;
9138;SDS011;4604;48.616;9.548;2024-01-25T07:15:47;8.73;;;2.97;;
9138;SDS011;4604;48.616;9.548;2024-01-25T07:18:14;9.90;;;2.73;;
9138;SDS011;4604;48.616;9.548;2024-01-25T07:20:40;11.33;;;3.17;;
9138;SDS011;4604;48.616;9.548;2024-01-25T07:23:07;10.20;;;3.13;;
9138;SDS011;4604;48.616;9.548;2024-01-25T07:25:34;9.90;;;2.97;;
9138;SDS011;4604;48.616;9.548;2024-01-25T07:28:00;8.23;;;2.20;;
9138;SDS011;4604;48.616;9.548;2024-01-25T07:30:27;10.10;;;2.93;;
9138;SDS011;4604;48.616;9.548;2024-01-25T07:32:55;10.17;;;2.73;;
9138;SDS011;4604;48.616;9.548;2024-01-25T07:35:22;6.63;;;2.43;;
9138;SDS011;4604;48.616;9.548;2024-01-25T07:37:48;8.87;;;2.67;;
9138;SDS011;4604;48.616;9.548;2024-01-25T07:40:15;11.40;;;2.97;;
9138;SDS011;4604;48.616;9.548;2024-01-25T07:42:42;5.27;;;2.57;;
9138;SDS011;4604;48.616;9.548;2024-01-25T07:45:09;10.03;;;2.87;;
9138;SDS011;4604;48.616;9.548;2024-01-25T07:47:38;10.33;;;2.60;;
9138;SDS011;4604;48.616;9.548;2024-01-25T07:50:08;12.63;;;2.63;;
9138;SDS011;4604;48.616;9.548;2024-01-25T07:52:35;7.60;;;2.60;;
9138;SDS011;4604;48.616;9.548;2024-01-25T07:55:02;11.33;;;3.13;;
9138;SDS011;4604;48.616;9.548;2024-01-25T07:57:30;10.27;;;2.80;;
9138;SDS011;4604;48.616;9.548;2024-01-25T07:59:56;8.50;;;2.60;;
9138;SDS011;4604;48.616;9.548;2024-01-25T08:02:23;12.80;;;2.50;;
9138;SDS011;4604;48.616;9.548;2024-01-25T08:04:50;5.87;;;2.63;;
9138;SDS011;4604;48.616;9.548;2024-01-25T08:07:18;6.30;;;2.30;;
9138;SDS011;4604;48.616;9.548;2024-01-25T08:09:45;10.97;;;2.23;;
9138;SDS011;4604;48.616;9.548;2024-01-25T08:12:11;8.43;;;2.20;;
9138;SDS011;4604;48.616;9.548;2024-01-25T08:14:38;7.33;;;2.20;;
9138;SDS011;4604;48.616;9.548;2024-01-25T08:17:05;10.33;;;2.40;;
9138;SDS011;4604;48.616;9.548;2024-01-25T08:19:31;9.80;;;2.27;;
9138;SDS011;4604;48.616;9.548;2024-01-25T08:21:58;7.60;;;2.30;;
9138;SDS011;4604;48.616;9.548;2024-01-25T08:24:26;6.63;;;2.10;;
9138;SDS011;4604;48.616;9.548;2024-01-25T08:26:53;10.07;;;2.57;;
9138;SDS011;4604;48.616;9.548;2024-01-25T08:29:20;7.07;;;1.90;;
9138;SDS011;4604;48.616;9.548;2024-01-25T08:31:46;9.60;;;2.20;;
9138;SDS011;4604;48.616;9.548;2024-01-25T08:34:13;7.13;;;2.00;;
9138;SDS011;4604;48.616;9.548;2024-01-25T08:36:40;6.33;;;1.90;;
9138;SDS011;4604;48.616;9.548;2024-01-25T08:39:07;6.60;;;2.13;;
9138;SDS011;4604;48.616;9.548;2024-01-25T08:41:35;7.93;;;2.30;;
9138;SDS011;4604;48.616;9.548;2024-01-25T08:44:02;8.73;;;1.93;;
9138;SDS011;4604;48.616;9.548;2024-01-25T08:46:28;4.50;;;1.80;;
9138;SDS011;4604;48.616;9.548;2024-01-25T08:48:55;5.90;;;2.03;;
9138;SDS011;4604;48.616;9.548;2024-01-25T08:51:22;9.63;;;2.00;;
9138;SDS011;4604;48.616;9.548;2024-01-25T08:53:48;11.63;;;1.87;;
9138;SDS011;4604;48.616;9.548;2024-01-25T08:56:16;6.13;;;2.00;;
9138;SDS011;4604;48.616;9.548;2024-01-25T08:58:45;4.37;;;2.07;;
9138;SDS011;4604;48.616;9.548;2024-01-25T09:01:12;5.80;;;2.23;;
9138;SDS011;4604;48.616;9.548;2024-01-25T09:03:39;4.43;;;2.10;;
9138;SDS011;4604;48.616;9.548;2024-01-25T09:06:06;9.43;;;1.73;;
9138;SDS011;4604;48.616;9.548;2024-01-25T09:08:33;5.57;;;2.10;;
9138;SDS011;4604;48.616;9.548;2024-01-25T09:11:00;5.50;;;1.70;;
9138;SDS011;4604;48.616;9.548;2024-01-25T09:13:26;7.27;;;1.77;;
9138;SDS011;4604;48.616;9.548;2024-01-25T09:15:55;5.53;;;2.17;;
9138;SDS011;4604;48.616;9.548;2024-01-25T09:18:22;8.53;;;2.37;;
9138;SDS011;4604;48.616;9.548;2024-01-25T09:20:50;4.70;;;2.33;;
9138;SDS011;4604;48.616;9.548;2024-01-25T09:23:16;9.90;;;2.40;;
9138;SDS011;4604;48.616;9.548;2024-01-25T09:25:44;7.93;;;2.57;;
9138;SDS011;4604;48.616;9.548;2024-01-25T09:28:11;7.43;;;2.43;;
9138;SDS011;4604;48.616;9.548;2024-01-25T09:30:38;13.40;;;2.40;;
9138;SDS011;4604;48.616;9.548;2024-01-25T09:33:14;12.30;;;2.60;;
9138;SDS011;4604;48.616;9.548;2024-01-25T09:35:41;12.37;;;3.27;;
9138;SDS011;4604;48.616;9.548;2024-01-25T09:38:11;11.93;;;2.73;;
9138;SDS011;4604;48.616;9.548;2024-01-25T09:40:38;7.23;;;2.37;;
9138;SDS011;4604;48.616;9.548;2024-01-25T09:43:05;7.20;;;3.07;;
9138;SDS011;4604;48.616;9.548;2024-01-25T09:45:33;7.17;;;2.70;;
9138;SDS011;4604;48.616;9.548;2024-01-25T09:47:59;7.97;;;2.43;;
9138;SDS011;4604;48.616;9.548;2024-01-25T09:50:30;8.80;;;2.57;;
9138;SDS011;4604;48.616;9.548;2024-01-25T09:52:59;6.30;;;2.47;;
9138;SDS011;4604;48.616;9.548;2024-01-25T09:55:26;11.40;;;2.43;;
9138;SDS011;4604;48.616;9.548;2024-01-25T09:57:53;10.33;;;2.50;;
9138;SDS011;4604;48.616;9.548;2024-01-25T10:00:21;9.77;;;2.60;;
9138;SDS011;4604;48.616;9.548;2024-01-25T10:02:48;8.20;;;2.60;;
9138;SDS011;4604;48.616;9.548;2024-01-25T10:05:15;11.67;;;2.93;;
9138;SDS011;4604;48.616;9.548;2024-01-25T10:07:45;13.03;;;2.70;;
9138;SDS011;4604;48.616;9.548;2024-01-25T10:10:12;9.43;;;2.80;;
9138;SDS011;4604;48.616;9.548;2024-01-25T10:12:39;13.07;;;2.63;;
9138;SDS011;4604;48.616;9.548;2024-01-25T10:15:07;11.30;;;2.73;;
9138;SDS011;4604;48.616;9.548;2024-01-25T10:17:35;15.23;;;2.80;;
9138;SDS011;4604;48.616;9.548;2024-01-25T10:20:04;11.10;;;2.40;;
9138;SDS011;4604;48.616;9.548;2024-01-25T10:22:32;14.30;;;2.93;;
9138;SDS011;4604;48.616;9.548;2024-01-25T10:25:00;9.20;;;2.63;;
9138;SDS011;4604;48.616;9.548;2024-01-25T10:27:27;13.60;;;2.80;;
9138;SDS011;4604;48.616;9.548;2024-01-25T10:29:55;10.53;;;2.70;;
9138;SDS011;4604;48.616;9.548;2024-01-25T10:32:22;10.43;;;2.60;;
9138;SDS011;4604;48.616;9.548;2024-01-25T10:34:49;12.23;;;2.87;;
9138;SDS011;4604;48.616;9.548;2024-01-25T10:37:17;13.93;;;2.50;;
9138;SDS011;4604;48.616;9.548;2024-01-25T10:39:46;8.93;;;2.60;;
9138;SDS011;4604;48.616;9.548;2024-01-25T10:42:15;11.03;;;2.20;;
9138;SDS011;4604;48.616;9.548;2024-01-25T10:44:42;11.27;;;2.70;;
9138;SDS011;4604;48.616;9.548;2024-01-25T10:47:10;8.87;;;2.40;;
9138;SDS011;4604;48.616;9.548;2024-01-25T10:49:38;13.00;;;2.23;;
9138;SDS011;4604;48.616;9.548;2024-01-25T10:52:05;11.17;;;2.60;;
9138;SDS011;4604;48.616;9.548;2024-01-25T10:54:32;8.53;;;2.50;;
9138;SDS011;4604;48.616;9.548;2024-01-25T10:57:00;8.90;;;2.50;;
9138;SDS011;4604;48.616;9.548;2024-01-25T10:59:29;7.17;;;2.30;;
9138;SDS011;4604;48.616;9.548;2024-01-25T11:01:56;11.37;;;2.63;;
9138;SDS011;4604;48.616;9.548;2024-01-25T11:04:23;9.50;;;2.70;;
9138;SDS011;4604;48.616;9.548;2024-01-25T11:06:50;13.73;;;3.20;;
9138;SDS011;4604;48.616;9.548;2024-01-25T11:09:18;7.17;;;2.43;;
9138;SDS011;4604;48.616;9.548;2024-01-25T11:11:46;10.87;;;2.57;;
9138;SDS011;4604;48.616;9.548;2024-01-25T11:14:14;9.30;;;2.40;;
9138;SDS011;4604;48.616;9.548;2024-01-25T11:16:43;8.13;;;2.77;;
9138;SDS011;4604;48.616;9.548;2024-01-25T11:19:15;10.67;;;2.70;;
9138;SDS011;4604;48.616;9.548;2024-01-25T11:21:43;6.83;;;2.50;;
9138;SDS011;4604;48.616;9.548;2024-01-25T11:24:11;6.40;;;2.33;;
9138;SDS011;4604;48.616;9.548;2024-01-25T11:26:39;11.03;;;2.67;;
9138;SDS011;4604;48.616;9.548;2024-01-25T11:29:06;9.03;;;2.47;;
9138;SDS011;4604;48.616;9.548;2024-01-25T11:31:33;13.10;;;2.47;;
9138;SDS011;4604;48.616;9.548;2024-01-25T11:34:02;9.60;;;2.33;;
9138;SDS011;4604;48.616;9.548;2024-01-25T11:36:29;15.87;;;2.27;;
9138;SDS011;4604;48.616;9.548;2024-01-25T11:38:55;10.13;;;2.70;;
9138;SDS011;4604;48.616;9.548;2024-01-25T11:41:23;7.93;;;2.70;;
9138;SDS011;4604;48.616;9.548;2024-01-25T11:43:50;8.10;;;2.60;;
9138;SDS011;4604;48.616;9.548;2024-01-25T11:46:17;13.40;;;2.63;;
9138;SDS011;4604;48.616;9.548;2024-01-25T11:48:44;13.03;;;2.90;;
9138;SDS011;4604;48.616;9.548;2024-01-25T11:51:12;9.17;;;2.30;;
9138;SDS011;4604;48.616;9.548;2024-01-25T11:53:39;6.30;;;2.03;;
9138;SDS011;4604;48.616;9.548;2024-01-25T11:56:06;11.80;;;2.70;;
9138;SDS011;4604;48.616;9.548;2024-01-25T11:58:35;10.20;;;2.17;;
9138;SDS011;4604;48.616;9.548;2024-01-25T12:01:03;8.30;;;2.37;;
9138;SDS011;4604;48.616;9.548;2024-01-25T12:03:33;9.20;;;2.53;;
9138;SDS011;4604;48.616;9.548;2024-01-25T12:06:00;12.87;;;2.60;;
9138;SDS011;4604;48.616;9.548;2024-01-25T12:08:31;8.43;;;2.37;;
9138;SDS011;4604;48.616;9.548;2024-01-25T12:11:07;12.03;;;3.47;;
9138;SDS011;4604;48.616;9.548;2024-01-25T12:13:35;5.30;;;2.23;;
9138;SDS011;4604;48.616;9.548;2024-01-25T12:16:02;8.50;;;2.77;;
9138;SDS011;4604;48.616;9.548;2024-01-25T12:18:29;5.43;;;2.60;;
9138;SDS011;4604;48.616;9.548;2024-01-25T12:20:57;8.27;;;2.13;;
9138;SDS011;4604;48.616;9.548;2024-01-25T12:23:31;8.13;;;2.40;;
9138;SDS011;4604;48.616;9.548;2024-01-25T12:25:59;6.93;;;2.13;;
9138;SDS011;4604;48.616;9.548;2024-01-25T12:28:27;6.37;;;2.03;;
9138;SDS011;4604;48.616;9.548;2024-01-25T12:30:54;8.17;;;2.37;;
9138;SDS011;4604;48.616;9.548;2024-01-25T12:33:21;10.13;;;2.90;;
9138;SDS011;4604;48.616;9.548;2024-01-25T12:35:48;3.80;;;1.83;;
9138;SDS011;4604;48.616;9.548;2024-01-25T12:38:15;7.23;;;2.10;;
9138;SDS011;4604;48.616;9.548;2024-01-25T12:40:43;5.57;;;1.90;;
9138;SDS011;4604;48.616;9.548;2024-01-25T12:43:10;7.93;;;1.83;;
9138;SDS011;4604;48.616;9.548;2024-01-25T12:45:36;14.03;;;2.60;;
9138;SDS011;4604;48.616;9.548;2024-01-25T12:48:03;9.27;;;2.43;;
9138;SDS011;4604;48.616;9.548;2024-01-25T12:50:31;5.27;;;1.80;;
9138;SDS011;4604;48.616;9.548;2024-01-25T12:52:58;8.33;;;1.90;;
9138;SDS011;4604;48.616;9.548;2024-01-25T12:55:26;5.23;;;1.97;;
9138;SDS011;4604;48.616;9.548;2024-01-25T12:57:55;8.00;;;2.33;;
9138;SDS011;4604;48.616;9.548;2024-01-25T13:00:22;13.63;;;2.90;;
9138;SDS011;4604;48.616;9.548;2024-01-25T13:02:49;6.20;;;1.80;;
9138;SDS011;4604;48.616;9.548;2024-01-25T13:05:15;9.97;;;2.20;;
9138;SDS011;4604;48.616;9.548;2024-01-25T13:07:42;8.10;;;2.20;;
9138;SDS011;4604;48.616;9.548;2024-01-25T13:10:09;5.63;;;2.03;;
9138;SDS011;4604;48.616;9.548;2024-01-25T13:12:36;6.23;;;1.80;;
9138;SDS011;4604;48.616;9.548;2024-01-25T13:15:05;5.33;;;1.97;;
9138;SDS011;4604;48.616;9.548;2024-01-25T13:17:33;7.20;;;1.97;;
9138;SDS011;4604;48.616;9.548;2024-01-25T13:20:01;9.57;;;2.17;;
9138;SDS011;4604;48.616;9.548;2024-01-25T13:22:28;6.53;;;1.80;;
9138;SDS011;4604;48.616;9.548;2024-01-25T13:24:55;4.43;;;2.10;;
9138;SDS011;4604;48.616;9.548;2024-01-25T13:27:22;9.83;;;2.37;;
9138;SDS011;4604;48.616;9.548;2024-01-25T13:29:48;10.07;;;2.07;;
9138;SDS011;4604;48.616;9.548;2024-01-25T13:32:16;6.17;;;2.20;;
9138;SDS011;4604;48.616;9.548;2024-01-25T13:34:43;6.80;;;2.03;;
9138;SDS011;4604;48.616;9.548;2024-01-25T13:37:10;7.00;;;2.33;;
9138;SDS011;4604;48.616;9.548;2024-01-25T13:39:36;4.70;;;1.93;;
9138;SDS011;4604;48.616;9.548;2024-01-25T13:42:03;7.77;;;2.50;;
9138;SDS011;4604;48.616;9.548;2024-01-25T13:44:30;12.60;;;2.00;;
9138;SDS011;4604;48.616;9.548;2024-01-25T13:46:57;5.83;;;1.93;;
9138;SDS011;4604;48.616;9.548;2024-01-25T13:49:25;6.80;;;2.27;;
9138;SDS011;4604;48.616;9.548;2024-01-25T13:51:52;9.30;;;1.90;;
9138;SDS011;4604;48.616;9.548;2024-01-25T13:54:19;4.70;;;2.07;;
9138;SDS011;4604;48.616;9.548;2024-01-25T13:56:46;5.63;;;1.70;;
9138;SDS011;4604;48.616;9.548;2024-01-25T13:59:13;7.63;;;2.13;;
9138;SDS011;4604;48.616;9.548;2024-01-25T14:01:39;3.87;;;1.80;;
9138;SDS011;4604;48.616;9.548;2024-01-25T14:04:06;6.63;;;2.20;;
9138;SDS011;4604;48.616;9.548;2024-01-25T14:06:34;4.00;;;2.30;;
9138;SDS011;4604;48.616;9.548;2024-01-25T14:09:01;7.17;;;2.40;;
9138;SDS011;4604;48.616;9.548;2024-01-25T14:11:27;8.73;;;2.47;;
9138;SDS011;4604;48.616;9.548;2024-01-25T14:13:54;5.27;;;1.90;;
9138;SDS011;4604;48.616;9.548;2024-01-25T14:16:21;5.60;;;2.03;;
9138;SDS011;4604;48.616;9.548;2024-01-25T14:18:47;14.60;;;1.80;;
9138;SDS011;4604;48.616;9.548;2024-01-25T14:21:14;8.77;;;2.47;;
9138;SDS011;4604;48.616;9.548;2024-01-25T14:23:42;6.53;;;2.13;;
9138;SDS011;4604;48.616;9.548;2024-01-25T14:26:09;5.93;;;1.90;;
9138;SDS011;4604;48.616;9.548;2024-01-25T14:28:35;8.10;;;1.97;;
9138;SDS011;4604;48.616;9.548;2024-01-25T14:31:02;10.53;;;2.67;;
9138;SDS011;4604;48.616;9.548;2024-01-25T14:33:29;7.07;;;2.37;;
9138;SDS011;4604;48.616;9.548;2024-01-25T14:35:56;6.63;;;2.23;;
9138;SDS011;4604;48.616;9.548;2024-01-25T14:38:22;5.43;;;1.90;;
9138;SDS011;4604;48.616;9.548;2024-01-25T14:40:50;5.30;;;1.83;;
9138;SDS011;4604;48.616;9.548;2024-01-25T14:43:17;7.53;;;2.20;;
9138;SDS011;4604;48.616;9.548;2024-01-25T14:45:44;6.97;;;2.13;;
9138;SDS011;4604;48.616;9.548;2024-01-25T14:48:11;6.20;;;2.10;;
9138;SDS011;4604;48.616;9.548;2024-01-25T14:50:38;11.27;;;2.60;;
9138;SDS011;4604;48.616;9.548;2024-01-25T14:53:04;5.33;;;2.23;;
9138;SDS011;4604;48.616;9.548;2024-01-25T14:55:31;6.57;;;2.27;;
9138;SDS011;4604;48.616;9.548;2024-01-25T14:57:59;5.70;;;1.97;;
9138;SDS011;4604;48.616;9.548;2024-01-25T15:00:26;13.10;;;2.57;;
9138;SDS011;4604;48.616;9.548;2024-01-25T15:02:52;5.30;;;1.83;;
9138;SDS011;4604;48.616;9.548;2024-01-25T15:05:21;9.17;;;2.00;;
9138;SDS011;4604;48.616;9.548;2024-01-25T15:07:48;6.00;;;2.10;;
9138;SDS011;4604;48.616;9.548;2024-01-25T15:10:15;11.80;;;2.63;;
9138;SDS011;4604;48.616;9.548;2024-01-25T15:12:41;15.73;;;3.37;;
9138;SDS011;4604;48.616;9.548;2024-01-25T15:15:10;19.00;;;4.70;;
9138;SDS011;4604;48.616;9.548;2024-01-25T15:17:36;13.27;;;4.97;;
9138;SDS011;4604;48.616;9.548;2024-01-25T15:20:04;17.17;;;6.47;;